Time;durP1;ratioP1;P1;durP2;ratioP2;P2;SDS_P1;SDS_P2;PMS_P1;PMS_P2;Temp;Humidity;BMP_temperature;BMP_pressure;BME280_temperature;BME280_humidity;BME280_pressure;Samples;Min_cycle;Max_cycle;Signal;HPM_P1;HPM_P2
2022/11/25 00:01:06;;;;;;;;;;;;;;;5.14;77.46;98238.78;7385897;19;19944;-76
2022/11/25 00:03:34;;;;;;;;;;;;;;;5.15;77.48;98229.94;7390559;19;19956;-74
2022/11/25 00:06:17;;;;;;;;;;;;;;;5.20;77.15;98236.47;7386698;19;19922;-74
2022/11/25 00:08:44;;;;;;;;;;;;;;;5.32;76.93;98245.16;7386277;19;20462;-74
2022/11/25 00:11:11;;;;;;;;;;;;;;;5.34;76.77;98243.22;7387599;19;19930;-74
2022/11/25 00:13:38;;;;;;;;;;;;;;;5.33;76.56;98238.94;7387921;19;19935;-74
2022/11/25 00:16:05;;;;;;;;;;;;;;;5.22;76.52;98225.88;7388499;19;20300;-74
2022/11/25 00:18:32;;;;;;;;;;;;;;;5.03;76.59;98226.56;7387970;19;19922;-74
2022/11/25 00:21:03;;;;;;;;;;;;;;;4.93;77.13;98236.13;7386243;19;19919;-74
2022/11/25 00:23:31;;;;;;;;;;;;;;;4.82;77.06;98240.44;7385672;19;19940;-74
2022/11/25 00:26:05;;;;;;;;;;;;;;;4.75;77.39;98236.63;7384871;19;19925;-75
2022/11/25 00:28:32;;;;;;;;;;;;;;;4.73;76.95;98230.66;7388642;19;19919;-75
2022/11/25 00:31:09;;;;;;;;;;;;;;;4.73;77.19;98229.84;7387309;19;19919;-74
2022/11/25 00:33:35;;;;;;;;;;;;;;;4.64;77.05;98231.41;7383173;19;19918;-75
2022/11/25 00:36:06;;;;;;;;;;;;;;;4.63;77.18;98224.47;7388406;19;19923;-74
2022/11/25 00:38:32;;;;;;;;;;;;;;;4.61;77.14;98232.47;7385781;19;19918;-74
2022/11/25 00:46:29;;;;;;;;;;;;;;;4.58;77.27;98237.13;7388908;19;19919;-74
2022/11/25 00:48:56;;;;;;;;;;;;;;;4.65;77.44;98242.72;7383921;19;19926;-74
2022/11/25 00:51:23;;;;;;;;;;;;;;;4.66;77.12;98231.28;7384772;19;19919;-74
2022/11/25 00:53:50;;;;;;;;;;;;;;;4.61;77.51;98231.66;7386744;19;19910;-74
2022/11/25 00:56:24;;;;;;;;;;;;;;;4.66;77.28;98240.00;7386506;19;19914;-74
2022/11/25 00:58:51;;;;;;;;;;;;;;;4.71;77.64;98231.72;7384650;19;19922;-74
2022/11/25 01:01:18;;;;;;;;;;;;;;;4.80;77.46;98229.22;7384613;19;19919;-74
2022/11/25 01:03:47;;;;;;;;;;;;;;;4.86;77.69;98235.75;7388555;19;20415;-74
2022/11/25 01:06:14;;;;;;;;;;;;;;;4.87;77.81;98245.31;7385706;19;19919;-74
2022/11/25 01:08:40;;;;;;;;;;;;;;;4.80;77.73;98246.75;7385739;19;19956;-75
2022/11/25 01:11:09;;;;;;;;;;;;;;;4.84;77.61;98242.91;7387705;19;19926;-75
2022/11/25 01:13:38;;;;;;;;;;;;;;;4.82;77.90;98250.09;7378560;19;21490;-74
2022/11/25 01:16:05;;;;;;;;;;;;;;;4.84;78.19;98246.38;7380951;19;19952;-75
2022/11/25 01:18:32;;;;;;;;;;;;;;;4.99;77.98;98244.28;7383699;19;19923;-74
2022/11/25 01:21:09;;;;;;;;;;;;;;;5.13;77.96;98244.97;7383453;19;20339;-74
2022/11/25 01:23:36;;;;;;;;;;;;;;;5.18;77.73;98246.25;7388412;19;19918;-74
2022/11/25 01:26:06;;;;;;;;;;;;;;;5.14;77.90;98251.91;7387086;19;19927;-74
2022/11/25 01:28:33;;;;;;;;;;;;;;;5.18;77.76;98248.06;7385370;19;19940;-75
2022/11/25 01:31:01;;;;;;;;;;;;;;;5.05;77.59;98243.81;7381263;19;19918;-74
2022/11/25 01:33:28;;;;;;;;;;;;;;;5.06;77.61;98242.03;7385692;19;20254;-74
2022/11/25 01:35:56;;;;;;;;;;;;;;;5.09;77.70;98235.72;7384268;19;20011;-74
2022/11/25 01:38:23;;;;;;;;;;;;;;;5.05;77.64;98229.84;7384363;19;20390;-74
2022/11/25 01:40:49;;;;;;;;;;;;;;;5.03;77.84;98231.78;7382314;19;19926;-74
2022/11/25 01:43:16;;;;;;;;;;;;;;;5.02;78.12;98224.88;7384020;19;19952;-74
2022/11/25 01:45:42;;;;;;;;;;;;;;;5.07;78.39;98227.94;7381863;19;19949;-74
2022/11/25 01:48:17;;;;;;;;;;;;;;;5.22;78.21;98228.50;7380157;19;19956;-75
2022/11/25 01:50:44;;;;;;;;;;;;;;;5.24;77.76;98224.78;7380788;19;19919;-74
2022/11/25 01:53:11;;;;;;;;;;;;;;;5.19;77.61;98232.22;7385008;19;20269;-74
2022/11/25 01:55:39;;;;;;;;;;;;;;;5.29;77.50;98229.63;7381862;19;19922;-74
2022/11/25 01:58:07;;;;;;;;;;;;;;;5.31;77.28;98232.97;7383066;19;19948;-74
2022/11/25 02:00:33;;;;;;;;;;;;;;;5.43;76.73;98234.59;7379444;19;19919;-74
2022/11/25 02:03:00;;;;;;;;;;;;;;;5.26;76.61;98222.03;7379943;19;19923;-74
2022/11/25 02:05:36;;;;;;;;;;;;;;;5.41;76.45;98225.19;7381848;19;20316;-74
2022/11/25 02:08:03;;;;;;;;;;;;;;;5.36;76.63;98227.38;7381968;19;19931;-73
2022/11/25 02:10:31;;;;;;;;;;;;;;;5.31;76.74;98226.91;7385100;19;19927;-74
2022/11/25 02:12:58;;;;;;;;;;;;;;;5.40;76.66;98239.28;7390924;19;19918;-74
2022/11/25 02:15:24;;;;;;;;;;;;;;;5.46;76.33;98238.75;7388661;19;19922;-74
2022/11/25 02:17:51;;;;;;;;;;;;;;;5.39;76.21;98240.22;7389522;19;19922;-74
2022/11/25 02:20:19;;;;;;;;;;;;;;;5.35;76.44;98236.19;7384754;19;19933;-74
2022/11/25 02:22:45;;;;;;;;;;;;;;;5.28;76.68;98236.69;7385962;19;19975;-75
2022/11/25 02:25:15;;;;;;;;;;;;;;;5.31;76.52;98237.41;7389161;19;19923;-74
2022/11/25 02:27:42;;;;;;;;;;;;;;;5.37;76.33;98242.13;7389425;19;19919;-74
2022/11/25 02:30:09;;;;;;;;;;;;;;;5.41;75.85;98243.56;7387211;19;19923;-74
2022/11/25 02:32:41;;;;;;;;;;;;;;;5.33;76.11;98243.34;7389690;19;20342;-76
2022/11/25 02:35:28;;;;;;;;;;;;;;;5.34;75.84;98237.13;7387265;19;19919;-74
2022/11/25 02:37:56;;;;;;;;;;;;;;;5.38;75.46;98235.94;7383870;19;20376;-75
2022/11/25 02:40:23;;;;;;;;;;;;;;;5.06;75.96;98247.28;7386890;19;19919;-75
2022/11/25 02:42:49;;;;;;;;;;;;;;;5.22;76.05;98237.19;7389504;19;19915;-73
2022/11/25 02:45:16;;;;;;;;;;;;;;;5.19;75.66;98241.88;7390039;19;19919;-74
2022/11/25 02:47:43;;;;;;;;;;;;;;;5.25;75.54;98241.34;7389633;19;19948;-74
2022/11/25 02:50:12;;;;;;;;;;;;;;;5.24;75.77;98234.47;7388156;19;19922;-75
2022/11/25 02:52:39;;;;;;;;;;;;;;;5.30;75.37;98233.13;7388066;19;20649;-75
2022/11/25 02:55:08;;;;;;;;;;;;;;;5.10;75.83;98232.94;7384194;19;19927;-74
2022/11/25 02:57:34;;;;;;;;;;;;;;;5.09;76.18;98227.84;7387232;19;19925;-74
2022/11/25 03:00:01;;;;;;;;;;;;;;;4.97;76.46;98229.66;7388126;19;20015;-74
2022/11/25 03:02:28;;;;;;;;;;;;;;;4.77;76.56;98232.09;7389436;19;20675;-74
2022/11/25 03:04:55;;;;;;;;;;;;;;;4.66;76.97;98234.75;7390231;19;19927;-74
2022/11/25 03:07:21;;;;;;;;;;;;;;;4.77;77.64;98231.28;7390191;19;19930;-74
2022/11/25 03:09:48;;;;;;;;;;;;;;;4.72;77.60;98225.56;7387911;19;19923;-75
2022/11/25 03:12:18;;;;;;;;;;;;;;;4.78;77.85;98222.44;7385059;19;19926;-74
2022/11/25 03:14:45;;;;;;;;;;;;;;;4.78;77.85;98223.25;7389735;19;19927;-75
2022/11/25 03:17:12;;;;;;;;;;;;;;;4.78;77.48;98222.44;7389357;19;19982;-75
2022/11/25 03:19:38;;;;;;;;;;;;;;;4.81;77.55;98216.94;7387665;19;19932;-75
2022/11/25 03:22:05;;;;;;;;;;;;;;;4.76;77.58;98212.06;7390862;19;19915;-74
2022/11/25 03:24:32;;;;;;;;;;;;;;;4.74;77.69;98215.75;7391249;19;19926;-73
2022/11/25 03:26:59;;;;;;;;;;;;;;;4.70;77.60;98215.19;7385464;19;19919;-75
2022/11/25 03:29:26;;;;;;;;;;;;;;;4.75;77.54;98217.44;7386575;19;19929;-74
2022/11/25 03:31:53;;;;;;;;;;;;;;;4.87;77.36;98220.84;7390420;19;19944;-74
2022/11/25 03:34:20;;;;;;;;;;;;;;;4.99;76.99;98212.00;7385049;19;19919;-74
2022/11/25 03:36:46;;;;;;;;;;;;;;;4.89;76.94;98203.22;7387527;19;19918;-74
2022/11/25 03:39:13;;;;;;;;;;;;;;;4.81;77.04;98207.28;7389601;19;19942;-75
2022/11/25 03:41:40;;;;;;;;;;;;;;;4.76;77.33;98214.69;7387083;19;19923;-75
2022/11/25 03:44:07;;;;;;;;;;;;;;;4.75;77.47;98207.78;7380748;19;19943;-75
2022/11/25 03:46:35;;;;;;;;;;;;;;;4.76;77.21;98209.44;7380539;19;19926;-73
2022/11/25 03:49:03;;;;;;;;;;;;;;;4.85;76.91;98207.91;7385225;19;19923;-74
2022/11/25 03:51:30;;;;;;;;;;;;;;;4.80;76.96;98218.75;7383639;19;19918;-73
2022/11/25 03:53:58;;;;;;;;;;;;;;;4.73;77.20;98212.31;7386669;19;19915;-74
2022/11/25 03:56:25;;;;;;;;;;;;;;;4.72;76.07;98209.84;7386900;19;20372;-74
2022/11/25 03:58:51;;;;;;;;;;;;;;;4.64;76.41;98209.63;7385939;19;19917;-74
2022/11/25 04:01:18;;;;;;;;;;;;;;;4.38;76.66;98205.47;7378635;19;19923;-74
2022/11/25 04:03:45;;;;;;;;;;;;;;;4.46;76.79;98204.03;7384139;19;19933;-74
2022/11/25 04:06:12;;;;;;;;;;;;;;;4.32;77.01;98213.81;7385176;19;19923;-74
2022/11/25 04:08:39;;;;;;;;;;;;;;;4.43;76.93;98212.97;7385068;19;19927;-74
2022/11/25 04:11:06;;;;;;;;;;;;;;;4.41;76.81;98214.88;7385235;19;19970;-74
2022/11/25 04:13:38;;;;;;;;;;;;;;;4.57;76.66;98214.50;7379528;19;19930;-75
2022/11/25 04:16:04;;;;;;;;;;;;;;;4.36;76.79;98206.56;7384827;19;19923;-74
2022/11/25 04:18:31;;;;;;;;;;;;;;;4.48;76.38;98207.38;7379584;19;19926;-73
2022/11/25 04:20:58;;;;;;;;;;;;;;;4.43;75.81;98214.78;7385678;19;19978;-73
2022/11/25 04:23:25;;;;;;;;;;;;;;;4.19;76.72;98202.66;7386166;19;20388;-74
2022/11/25 04:26:01;;;;;;;;;;;;;;;4.17;76.74;98201.94;7386878;19;19925;-74
2022/11/25 04:28:35;;;;;;;;;;;;;;;4.13;76.83;98211.81;7387627;19;19986;-74
2022/11/25 04:31:06;;;;;;;;;;;;;;;4.12;77.15;98198.84;7383694;19;19925;-74
2022/11/25 04:33:34;;;;;;;;;;;;;;;4.14;77.37;98196.94;7379239;19;19923;-74
2022/11/25 04:36:01;;;;;;;;;;;;;;;4.24;77.36;98192.66;7381171;19;20377;-75
2022/11/25 04:38:28;;;;;;;;;;;;;;;4.22;77.59;98194.53;7382513;19;19919;-73
2022/11/25 04:40:56;;;;;;;;;;;;;;;4.40;77.49;98202.75;7387270;19;19923;-74
2022/11/25 04:43:24;;;;;;;;;;;;;;;4.52;77.49;98200.94;7384646;19;19942;-74
2022/11/25 04:46:03;;;;;;;;;;;;;;;4.56;77.42;98202.38;7384038;19;19933;-74
2022/11/25 04:48:44;;;;;;;;;;;;;;;4.53;77.42;98195.59;7385342;19;20358;-74
2022/11/25 04:51:12;;;;;;;;;;;;;;;4.46;76.66;98198.81;7379631;19;19918;-74
2022/11/25 04:53:38;;;;;;;;;;;;;;;4.51;77.10;98194.03;7382608;19;20289;-74
2022/11/25 04:56:07;;;;;;;;;;;;;;;4.40;76.62;98200.13;7383115;19;20567;-73
2022/11/25 05:01:26;;;;;;;;;;;;;;;4.70;77.02;98203.88;7383167;19;20298;-74
2022/11/25 05:04:00;;;;;;;;;;;;;;;4.64;76.70;98205.22;7385346;19;19941;-74
2022/11/25 05:06:26;;;;;;;;;;;;;;;4.63;76.26;98206.13;7384852;19;20372;-74
2022/11/25 05:08:53;;;;;;;;;;;;;;;4.56;76.09;98210.22;7382715;19;20367;-73
2022/11/25 05:11:22;;;;;;;;;;;;;;;4.49;75.90;98207.25;7381938;19;19922;-75
2022/11/25 05:13:50;;;;;;;;;;;;;;;4.48;75.67;98210.84;7385741;19;20348;-75
2022/11/25 05:16:16;;;;;;;;;;;;;;;4.37;75.94;98213.44;7388827;19;19918;-74
2022/11/25 05:18:44;;;;;;;;;;;;;;;4.22;76.40;98225.16;7385218;19;19980;-74
2022/11/25 05:21:11;;;;;;;;;;;;;;;4.09;76.74;98225.25;7385489;19;19915;-77
2022/11/25 05:23:40;;;;;;;;;;;;;;;4.07;76.93;98224.53;7384814;19;19943;-77
2022/11/25 05:26:07;;;;;;;;;;;;;;;4.22;76.45;98217.28;7382457;19;20637;-76
2022/11/25 05:28:46;;;;;;;;;;;;;;;4.10;76.63;98214.66;7386271;19;19925;-77
2022/11/25 05:31:13;;;;;;;;;;;;;;;4.03;77.32;98216.09;7384405;19;19914;-76
2022/11/25 05:33:42;;;;;;;;;;;;;;;3.96;77.39;98209.66;7381276;19;19915;-76
2022/11/25 05:36:09;;;;;;;;;;;;;;;3.94;76.91;98209.75;7381088;19;19919;-76
2022/11/25 05:38:42;;;;;;;;;;;;;;;4.05;77.04;98218.56;7384833;19;19922;-77
2022/11/25 05:41:22;;;;;;;;;;;;;;;3.94;76.88;98216.78;7374518;19;19978;-76
2022/11/25 05:43:49;;;;;;;;;;;;;;;3.95;76.93;98221.91;7378556;19;19923;-76
2022/11/25 05:46:16;;;;;;;;;;;;;;;3.88;77.35;98222.50;7383351;19;19929;-74
2022/11/25 05:48:49;;;;;;;;;;;;;;;3.99;77.33;98219.88;7380400;19;20355;-74
2022/11/25 05:51:18;;;;;;;;;;;;;;;4.00;77.19;98225.94;7378671;19;19917;-75
2022/11/25 05:53:44;;;;;;;;;;;;;;;4.19;76.77;98231.44;7380748;19;19918;-74
2022/11/25 05:56:12;;;;;;;;;;;;;;;4.28;76.36;98233.34;7380026;19;20331;-75
2022/11/25 05:59:05;;;;;;;;;;;;;;;4.31;75.87;98234.88;7378010;19;20330;-75
2022/11/25 06:01:44;;;;;;;;;;;;;;;4.33;75.96;98244.28;7384706;19;19919;-75
2022/11/25 06:04:11;;;;;;;;;;;;;;;4.27;76.17;98244.78;7387025;19;20456;-75
2022/11/25 06:06:38;;;;;;;;;;;;;;;4.31;75.77;98250.59;7384828;19;19911;-75
2022/11/25 06:09:06;;;;;;;;;;;;;;;4.17;76.44;98257.75;7383639;19;19948;-76
2022/11/25 06:11:33;;;;;;;;;;;;;;;4.21;76.34;98254.88;7386394;19;19923;-73
2022/11/25 06:14:00;;;;;;;;;;;;;;;4.20;76.18;98250.59;7380079;19;20367;-75
2022/11/25 06:16:27;;;;;;;;;;;;;;;4.13;76.63;98250.22;7380650;19;19936;-74
2022/11/25 06:19:06;;;;;;;;;;;;;;;4.11;76.39;98249.53;7379376;19;19915;-74
2022/11/25 06:21:35;;;;;;;;;;;;;;;4.11;76.31;98253.00;7379612;19;20347;-74
2022/11/25 06:24:02;;;;;;;;;;;;;;;4.02;76.47;98258.91;7383534;19;19922;-74
2022/11/25 06:26:29;;;;;;;;;;;;;;;4.10;76.23;98264.38;7381395;19;19923;-74
2022/11/25 06:28:56;;;;;;;;;;;;;;;4.21;76.05;98260.94;7375633;19;19926;-74
2022/11/25 06:31:24;;;;;;;;;;;;;;;4.16;76.42;98260.47;7373178;19;20292;-74
2022/11/25 06:34:05;;;;;;;;;;;;;;;4.10;76.87;98263.56;7380258;19;19915;-74
2022/11/25 06:36:32;;;;;;;;;;;;;;;3.97;76.98;98267.09;7382823;19;19979;-75
2022/11/25 06:38:58;;;;;;;;;;;;;;;3.95;77.33;98270.81;7384582;19;19914;-76
2022/11/25 06:41:25;;;;;;;;;;;;;;;4.14;77.14;98275.47;7381112;19;19948;-76
2022/11/25 06:43:52;;;;;;;;;;;;;;;4.13;76.63;98274.66;7385858;19;19926;-77
2022/11/25 06:46:18;;;;;;;;;;;;;;;4.21;76.62;98274.03;7380229;19;19944;-77
2022/11/25 06:48:50;;;;;;;;;;;;;;;4.17;76.79;98277.84;7380968;19;19914;-75
2022/11/25 06:51:17;;;;;;;;;;;;;;;4.04;76.70;98279.75;7385218;19;19919;-76
2022/11/25 06:53:44;;;;;;;;;;;;;;;3.91;76.86;98280.66;7380711;19;19949;-76
2022/11/25 06:56:13;;;;;;;;;;;;;;;3.85;77.21;98285.56;7386598;19;19975;-77
2022/11/25 06:58:40;;;;;;;;;;;;;;;3.88;77.90;98283.53;7393835;19;19932;-77
2022/11/25 07:01:10;;;;;;;;;;;;;;;4.02;77.42;98286.88;7388060;19;20320;-76
2022/11/25 07:03:37;;;;;;;;;;;;;;;4.18;76.76;98287.38;7389987;19;19922;-76
2022/11/25 07:06:03;;;;;;;;;;;;;;;4.01;77.14;98291.28;7390777;19;20276;-77
2022/11/25 07:08:30;;;;;;;;;;;;;;;3.99;77.34;98289.72;7385479;19;19926;-77
2022/11/25 07:11:07;;;;;;;;;;;;;;;4.08;77.26;98296.88;7380881;19;19925;-76
2022/11/25 07:13:33;;;;;;;;;;;;;;;4.04;77.62;98295.47;7378563;19;19987;-77
2022/11/25 07:16:03;;;;;;;;;;;;;;;4.14;77.26;98294.63;7379848;19;19923;-77
2022/11/25 07:18:34;;;;;;;;;;;;;;;4.29;77.21;98295.25;7377610;19;20742;-77
2022/11/25 07:21:05;;;;;;;;;;;;;;;4.22;77.71;98296.66;7372668;19;19922;-77
2022/11/25 07:23:32;;;;;;;;;;;;;;;4.41;77.47;98306.56;7377034;19;19948;-77
2022/11/25 07:26:09;;;;;;;;;;;;;;;4.35;77.18;98305.25;7380511;19;20103;-76
2022/11/25 07:28:36;;;;;;;;;;;;;;;4.43;77.10;98306.44;7379951;19;20360;-76
2022/11/25 07:31:07;;;;;;;;;;;;;;;4.43;77.58;98301.22;7376918;19;19974;-77
2022/11/25 07:33:57;;;;;;;;;;;;;;;4.51;77.73;98290.97;7378821;19;19934;-77
2022/11/25 07:36:24;;;;;;;;;;;;;;;4.64;77.88;98304.78;7375579;19;19990;-74
2022/11/25 07:38:51;;;;;;;;;;;;;;;4.79;77.65;98308.81;7379453;19;19929;-75
2022/11/25 07:41:21;;;;;;;;;;;;;;;4.90;77.44;98313.22;7379623;19;19922;-75
2022/11/25 07:43:58;;;;;;;;;;;;;;;4.84;77.55;98317.16;7379788;19;19984;-75
2022/11/25 07:46:28;;;;;;;;;;;;;;;5.04;77.07;98322.59;7376620;19;19922;-76
2022/11/25 07:48:56;;;;;;;;;;;;;;;5.20;77.10;98320.41;7379375;19;19952;-75
2022/11/25 07:51:28;;;;;;;;;;;;;;;5.43;76.70;98328.22;7376238;19;19960;-75
2022/11/25 07:53:55;;;;;;;;;;;;;;;5.53;76.22;98325.66;7375308;19;19953;-74
2022/11/25 07:56:22;;;;;;;;;;;;;;;5.49;76.38;98319.84;7376582;19;19952;-75
2022/11/25 07:58:48;;;;;;;;;;;;;;;5.46;75.86;98330.59;7381846;19;19919;-75
2022/11/25 08:01:16;;;;;;;;;;;;;;;5.33;75.37;98332.53;7375313;19;19926;-75
2022/11/25 08:03:43;;;;;;;;;;;;;;;5.43;75.93;98336.09;7378379;19;19915;-75
2022/11/25 08:06:11;;;;;;;;;;;;;;;5.56;76.15;98328.91;7377916;19;19923;-75
2022/11/25 08:08:37;;;;;;;;;;;;;;;5.65;76.20;98341.25;7378365;19;19948;-75
2022/11/25 08:11:05;;;;;;;;;;;;;;;5.60;76.49;98343.41;7373430;19;22635;-73
2022/11/25 08:13:31;;;;;;;;;;;;;;;5.61;76.05;98345.09;7372518;19;20335;-76
2022/11/25 08:15:58;;;;;;;;;;;;;;;5.77;75.42;98347.31;7378093;19;20010;-74
2022/11/25 08:18:25;;;;;;;;;;;;;;;5.75;75.73;98351.00;7377190;19;19923;-75
2022/11/25 08:20:57;;;;;;;;;;;;;;;5.77;76.22;98351.72;7377787;19;19990;-75
2022/11/25 08:23:23;;;;;;;;;;;;;;;5.85;75.76;98357.19;7378694;19;19975;-75
2022/11/25 08:25:50;;;;;;;;;;;;;;;5.81;75.11;98356.56;7377268;19;21149;-75
2022/11/25 08:28:16;;;;;;;;;;;;;;;5.88;75.05;98356.91;7375839;19;20395;-74
2022/11/25 08:30:43;;;;;;;;;;;;;;;6.02;75.40;98354.00;7375237;19;20650;-73
2022/11/25 08:33:09;;;;;;;;;;;;;;;6.22;74.89;98346.28;7377308;19;20384;-75
2022/11/25 08:35:36;;;;;;;;;;;;;;;6.15;74.80;98343.31;7378736;19;19926;-75
2022/11/25 08:38:07;;;;;;;;;;;;;;;6.12;76.03;98338.31;7376939;19;19922;-75
2022/11/25 08:40:35;;;;;;;;;;;;;;;6.05;76.34;98329.28;7373204;19;21227;-75
2022/11/25 08:43:02;;;;;;;;;;;;;;;6.16;76.42;98318.69;7373911;19;20277;-75
2022/11/25 08:45:29;;;;;;;;;;;;;;;6.21;77.07;98323.56;7372658;19;19915;-75
2022/11/25 08:47:55;;;;;;;;;;;;;;;6.42;76.61;98321.75;7377235;19;20380;-72
2022/11/25 08:50:25;;;;;;;;;;;;;;;6.47;76.67;98330.06;7376069;19;19919;-75
2022/11/25 08:52:51;;;;;;;;;;;;;;;6.51;76.39;98342.00;7377820;19;19945;-75
2022/11/25 08:55:18;;;;;;;;;;;;;;;6.55;76.24;98346.00;7379324;19;19923;-74
2022/11/25 08:57:45;;;;;;;;;;;;;;;6.70;76.48;98356.19;7377684;19;19931;-75
2022/11/25 09:00:12;;;;;;;;;;;;;;;6.73;75.93;98346.25;7372255;19;20336;-75
2022/11/25 09:02:38;;;;;;;;;;;;;;;6.68;76.04;98353.69;7378163;19;19934;-75
2022/11/25 09:05:05;;;;;;;;;;;;;;;6.69;76.27;98350.13;7377335;19;19951;-75
2022/11/25 09:07:32;;;;;;;;;;;;;;;6.80;76.50;98357.91;7378726;19;19927;-75
2022/11/25 09:09:59;;;;;;;;;;;;;;;6.82;76.27;98353.34;7377077;19;21098;-75
2022/11/25 09:12:30;;;;;;;;;;;;;;;6.85;76.14;98356.69;7376743;19;20604;-75
2022/11/25 09:14:57;;;;;;;;;;;;;;;6.74;75.95;98363.69;7376122;19;19967;-75
2022/11/25 09:17:23;;;;;;;;;;;;;;;6.77;75.99;98370.50;7375915;19;19948;-75
2022/11/25 09:19:50;;;;;;;;;;;;;;;6.81;76.06;98364.00;7373891;19;19930;-75
2022/11/25 09:22:17;;;;;;;;;;;;;;;6.89;76.46;98369.41;7378356;19;19923;-75
2022/11/25 09:24:44;;;;;;;;;;;;;;;6.99;76.54;98366.84;7377905;19;20765;-74
2022/11/25 09:27:10;;;;;;;;;;;;;;;6.89;75.64;98368.59;7378990;19;19923;-72
2022/11/25 09:29:37;;;;;;;;;;;;;;;7.22;76.12;98368.28;7377467;19;19926;-75
2022/11/25 09:32:04;;;;;;;;;;;;;;;7.59;76.51;98375.56;7377134;19;19930;-72
2022/11/25 09:34:31;;;;;;;;;;;;;;;7.83;75.53;98371.69;7374682;19;19933;-75
2022/11/25 09:36:58;;;;;;;;;;;;;;;8.11;75.63;98378.78;7377111;19;19926;-72
2022/11/25 09:39:28;;;;;;;;;;;;;;;8.33;74.34;98382.06;7377480;19;20266;-72
2022/11/25 09:48:19;;;;;;;;;;;;;;;8.66;70.29;98382.56;7375258;19;21458;-74
2022/11/25 09:50:46;;;;;;;;;;;;;;;8.82;72.22;98381.97;7371688;19;20007;-74
2022/11/25 09:53:21;;;;;;;;;;;;;;;8.92;72.39;98383.59;7374471;19;19918;-74
2022/11/25 09:55:48;;;;;;;;;;;;;;;8.98;72.65;98380.38;7377341;19;20402;-74
2022/11/25 09:58:15;;;;;;;;;;;;;;;9.15;72.88;98370.84;7377250;19;19922;-74
2022/11/25 10:00:43;;;;;;;;;;;;;;;9.31;72.69;98377.31;7373833;19;19914;-74
2022/11/25 10:03:09;;;;;;;;;;;;;;;9.35;72.80;98373.41;7374323;19;20281;-74
2022/11/25 10:05:37;;;;;;;;;;;;;;;9.35;72.83;98376.03;7373170;19;19927;-74
2022/11/25 10:08:22;;;;;;;;;;;;;;;9.34;72.72;98374.38;7372298;19;19923;-75
2022/11/25 10:10:52;;;;;;;;;;;;;;;9.35;72.35;98376.88;7373716;19;19919;-74
2022/11/25 10:13:21;;;;;;;;;;;;;;;9.48;72.19;98371.25;7373989;19;22411;-74
2022/11/25 10:15:49;;;;;;;;;;;;;;;9.67;72.21;98371.09;7373686;19;19956;-74
2022/11/25 10:18:18;;;;;;;;;;;;;;;9.70;71.66;98369.97;7379527;19;20361;-73
2022/11/25 10:20:45;;;;;;;;;;;;;;;9.75;71.73;98377.44;7376795;19;19960;-74
2022/11/25 10:23:15;;;;;;;;;;;;;;;9.77;70.57;98376.31;7382157;19;20520;-73
2022/11/25 10:25:46;;;;;;;;;;;;;;;9.94;70.32;98377.28;7372035;19;19944;-74
2022/11/25 10:28:16;;;;;;;;;;;;;;;9.91;71.20;98379.41;7373734;19;19946;-73
2022/11/25 10:30:54;;;;;;;;;;;;;;;9.85;70.57;98386.97;7376206;19;20563;-74
2022/11/25 10:33:31;;;;;;;;;;;;;;;9.53;69.47;98384.81;7379498;19;19974;-74
2022/11/25 10:35:58;;;;;;;;;;;;;;;9.67;70.85;98386.13;7384147;19;20560;-74
2022/11/25 10:38:26;;;;;;;;;;;;;;;9.78;71.44;98379.78;7380860;19;19919;-74
2022/11/25 10:40:52;;;;;;;;;;;;;;;9.85;71.06;98372.91;7377326;19;19931;-73
2022/11/25 10:43:19;;;;;;;;;;;;;;;9.66;71.40;98382.66;7373850;19;20322;-74
2022/11/25 10:45:48;;;;;;;;;;;;;;;9.69;71.48;98378.88;7378697;19;19922;-73
2022/11/25 10:48:20;;;;;;;;;;;;;;;9.73;71.55;98382.88;7369191;19;20277;-74
2022/11/25 10:51:13;;;;;;;;;;;;;;;9.71;71.47;98384.81;7360853;19;20255;-74
2022/11/25 10:53:40;;;;;;;;;;;;;;;9.82;71.55;98392.56;7349893;19;19926;-73
2022/11/25 10:56:11;;;;;;;;;;;;;;;9.88;71.66;98388.47;7347742;19;19914;-73
2022/11/25 10:58:38;;;;;;;;;;;;;;;9.98;70.99;98391.88;7351155;19;19919;-74
2022/11/25 11:01:20;;;;;;;;;;;;;;;9.98;71.22;98385.72;7340518;19;20383;-73
2022/11/25 11:03:50;;;;;;;;;;;;;;;10.00;71.02;98397.00;7340017;19;19998;-73
2022/11/25 11:06:34;;;;;;;;;;;;;;;9.96;70.97;98395.66;7338536;19;20309;-73
2022/11/25 11:09:01;;;;;;;;;;;;;;;9.93;71.22;98386.22;7340660;19;19922;-73
2022/11/25 11:11:28;;;;;;;;;;;;;;;9.99;71.69;98392.69;7336373;19;19948;-73
2022/11/25 11:14:07;;;;;;;;;;;;;;;9.98;71.66;98404.22;7346794;19;19958;-73
2022/11/25 11:16:35;;;;;;;;;;;;;;;10.14;69.72;98396.47;7353474;19;19914;-73
2022/11/25 11:19:02;;;;;;;;;;;;;;;10.09;70.02;98398.75;7372335;19;19946;-73
2022/11/25 11:21:32;;;;;;;;;;;;;;;10.03;70.87;98409.91;7371408;19;19945;-73
2022/11/25 11:23:59;;;;;;;;;;;;;;;9.95;70.74;98420.41;7382056;19;19926;-72
2022/11/25 11:26:33;;;;;;;;;;;;;;;9.92;71.30;98426.81;7378508;19;20019;-72
2022/11/25 11:29:04;;;;;;;;;;;;;;;9.85;71.77;98434.53;7382843;19;19918;-73
2022/11/25 11:31:38;;;;;;;;;;;;;;;9.88;71.64;98438.69;7370230;19;19923;-73
2022/11/25 11:34:17;;;;;;;;;;;;;;;9.87;71.53;98442.28;7370654;19;21913;-72
2022/11/25 11:37:13;;;;;;;;;;;;;;;9.75;72.00;98446.13;7376894;19;19945;-75
2022/11/25 11:39:49;;;;;;;;;;;;;;;9.63;73.12;98448.97;7372377;19;19948;-74
2022/11/25 11:42:22;;;;;;;;;;;;;;;9.78;73.00;98457.22;7374365;19;19919;-72
2022/11/25 11:44:52;;;;;;;;;;;;;;;9.78;72.73;98457.22;7381112;19;19915;-73
2022/11/25 11:47:37;;;;;;;;;;;;;;;9.81;72.80;98453.47;7380384;19;20295;-73
2022/11/25 11:50:19;;;;;;;;;;;;;;;9.85;72.35;98455.66;7381159;19;19939;-73
2022/11/25 11:53:25;;;;;;;;;;;;;;;9.75;72.41;98454.06;7386038;19;19948;-73
2022/11/25 11:56:07;;;;;;;;;;;;;;;9.74;73.50;98460.31;7384807;19;19954;-73
2022/11/25 11:59:12;;;;;;;;;;;;;;;9.88;73.59;98459.81;7385679;19;19923;-73
2022/11/25 12:01:58;;;;;;;;;;;;;;;9.85;73.41;98458.31;7386645;19;19919;-73
2022/11/25 12:04:30;;;;;;;;;;;;;;;9.92;73.44;98461.16;7387813;19;19994;-73
2022/11/25 12:07:02;;;;;;;;;;;;;;;9.73;73.50;98456.84;7391003;19;20607;-73
2022/11/25 12:09:29;;;;;;;;;;;;;;;9.84;73.19;98469.00;7382948;19;19927;-72
2022/11/25 12:11:58;;;;;;;;;;;;;;;9.83;73.29;98470.00;7386206;19;19923;-73
2022/11/25 12:14:24;;;;;;;;;;;;;;;9.74;73.35;98466.44;7385883;19;19939;-73
2022/11/25 12:16:52;;;;;;;;;;;;;;;9.59;73.94;98460.81;7386883;19;19932;-73
2022/11/25 12:19:37;;;;;;;;;;;;;;;9.51;74.52;98468.66;7383379;19;19927;-73
2022/11/25 12:22:11;;;;;;;;;;;;;;;9.49;74.67;98467.97;7386578;19;19919;-73
2022/11/25 12:24:51;;;;;;;;;;;;;;;9.38;75.08;98465.50;7382899;19;19915;-74
2022/11/25 12:27:36;;;;;;;;;;;;;;;9.32;75.60;98472.22;7386563;19;20356;-73
2022/11/25 12:30:07;;;;;;;;;;;;;;;9.33;75.76;98473.88;7381085;19;19935;-73
2022/11/25 12:32:37;;;;;;;;;;;;;;;9.23;75.92;98473.91;7382754;19;19963;-73
2022/11/25 12:35:13;;;;;;;;;;;;;;;9.12;75.87;98486.44;7381301;19;20299;-73
2022/11/25 12:37:42;;;;;;;;;;;;;;;9.26;75.88;98482.50;7382214;19;19927;-72
2022/11/25 12:40:12;;;;;;;;;;;;;;;9.31;75.74;98493.47;7385752;19;19927;-73
2022/11/25 12:42:40;;;;;;;;;;;;;;;9.25;75.81;98488.78;7385443;19;20862;-73
2022/11/25 12:45:11;;;;;;;;;;;;;;;9.18;76.17;98485.88;7387257;19;19978;-73
2022/11/25 12:47:37;;;;;;;;;;;;;;;9.19;76.33;98488.38;7390163;19;19943;-73
2022/11/25 12:50:04;;;;;;;;;;;;;;;9.30;76.30;98494.47;7388784;19;19971;-73
2022/11/25 12:52:41;;;;;;;;;;;;;;;9.28;76.21;98494.59;7386165;19;19926;-74
2022/11/25 12:55:17;;;;;;;;;;;;;;;9.29;76.57;98505.97;7382939;19;19938;-73
2022/11/25 12:57:53;;;;;;;;;;;;;;;9.27;76.05;98507.91;7388599;19;19914;-73
2022/11/25 13:00:20;;;;;;;;;;;;;;;9.07;76.91;98510.63;7386221;19;19954;-74
2022/11/25 13:03:14;;;;;;;;;;;;;;;9.11;76.81;98514.66;7386092;19;19923;-74
2022/11/25 13:05:41;;;;;;;;;;;;;;;9.09;77.05;98521.88;7389428;19;19927;-75
2022/11/25 13:08:26;;;;;;;;;;;;;;;9.09;77.11;98528.97;7386697;19;20347;-75
2022/11/25 13:11:01;;;;;;;;;;;;;;;9.23;76.93;98537.25;7385976;19;19914;-75
2022/11/25 13:13:46;;;;;;;;;;;;;;;9.23;76.95;98537.25;7383481;19;19925;-73
2022/11/25 13:16:13;;;;;;;;;;;;;;;9.17;76.93;98537.84;7385659;19;20498;-73
2022/11/25 13:18:41;;;;;;;;;;;;;;;8.82;78.41;98545.50;7384312;19;20353;-74
2022/11/25 13:21:11;;;;;;;;;;;;;;;9.05;77.36;98546.88;7381020;19;19926;-75
2022/11/25 13:23:51;;;;;;;;;;;;;;;9.08;77.56;98556.31;7381578;19;19957;-74
2022/11/25 13:26:27;;;;;;;;;;;;;;;9.13;77.46;98556.72;7379033;19;19915;-73